sensor_id;sensor_type;location;lat;lon;timestamp;pressure;altitude;pressure_sealevel;temperature;humidity
48027;BME280;50714;49.208;5.364;2024-01-30T00:00:38;100678.13;;;5.79;100.00
48027;BME280;50714;49.208;5.364;2024-01-30T00:10:38;100676.16;;;5.71;100.00
48027;BME280;50714;49.208;5.364;2024-01-30T00:20:38;100674.31;;;5.72;100.00
48027;BME280;50714;49.208;5.364;2024-01-30T00:30:39;100672.22;;;5.75;100.00
48027;BME280;50714;49.208;5.364;2024-01-30T00:40:39;100679.28;;;5.67;100.00
48027;BME280;50714;49.208;5.364;2024-01-30T00:50:39;100680.69;;;5.61;100.00
48027;BME280;50714;49.208;5.364;2024-01-30T01:00:40;100669.16;;;5.61;100.00
48027;BME280;50714;49.208;5.364;2024-01-30T01:10:40;100674.50;;;5.61;100.00
48027;BME280;50714;49.208;5.364;2024-01-30T01:20:40;100675.91;;;5.55;100.00
48027;BME280;50714;49.208;5.364;2024-01-30T01:30:41;100686.34;;;5.58;100.00
48027;BME280;50714;49.208;5.364;2024-01-30T01:40:41;100671.81;;;5.61;100.00
48027;BME280;50714;49.208;5.364;2024-01-30T01:50:44;100677.59;;;5.56;100.00
48027;BME280;50714;49.208;5.364;2024-01-30T02:00:44;100674.63;;;5.59;100.00
48027;BME280;50714;49.208;5.364;2024-01-30T02:10:45;100677.88;;;5.53;100.00
48027;BME280;50714;49.208;5.364;2024-01-30T02:20:45;100681.41;;;5.44;100.00
48027;BME280;50714;49.208;5.364;2024-01-30T02:30:46;100665.91;;;5.38;100.00
48027;BME280;50714;49.208;5.364;2024-01-30T02:40:46;100663.34;;;5.46;100.00
48027;BME280;50714;49.208;5.364;2024-01-30T02:50:47;100655.34;;;5.56;100.00
48027;BME280;50714;49.208;5.364;2024-01-30T03:00:47;100664.78;;;5.50;100.00
48027;BME280;50714;49.208;5.364;2024-01-30T03:10:47;100669.28;;;5.49;100.00
48027;BME280;50714;49.208;5.364;2024-01-30T03:20:48;100678.19;;;5.40;100.00
48027;BME280;50714;49.208;5.364;2024-01-30T03:30:48;100676.88;;;5.25;100.00
48027;BME280;50714;49.208;5.364;2024-01-30T03:40:48;100669.72;;;5.26;100.00
48027;BME280;50714;49.208;5.364;2024-01-30T03:50:49;100669.72;;;5.26;100.00
48027;BME280;50714;49.208;5.364;2024-01-30T04:00:51;100665.19;;;5.26;100.00
48027;BME280;50714;49.208;5.364;2024-01-30T04:10:51;100666.03;;;5.27;100.00
48027;BME280;50714;49.208;5.364;2024-01-30T04:20:52;100665.63;;;5.22;100.00
48027;BME280;50714;49.208;5.364;2024-01-30T04:30:52;100663.53;;;5.16;100.00
48027;BME280;50714;49.208;5.364;2024-01-30T04:40:52;100664.06;;;5.09;100.00
48027;BME280;50714;49.208;5.364;2024-01-30T04:50:53;100661.53;;;5.08;100.00
48027;BME280;50714;49.208;5.364;2024-01-30T05:00:53;100669.00;;;5.14;100.00
48027;BME280;50714;49.208;5.364;2024-01-30T05:10:54;100676.03;;;5.25;100.00
48027;BME280;50714;49.208;5.364;2024-01-30T05:20:54;100679.56;;;5.25;100.00
48027;BME280;50714;49.208;5.364;2024-01-30T05:30:55;100686.91;;;5.33;100.00
48027;BME280;50714;49.208;5.364;2024-01-30T05:40:56;100691.84;;;5.37;100.00
48027;BME280;50714;49.208;5.364;2024-01-30T05:50:58;100688.16;;;5.48;100.00
48027;BME280;50714;49.208;5.364;2024-01-30T06:01:00;100695.50;;;5.56;100.00
48027;BME280;50714;49.208;5.364;2024-01-30T06:11:00;100688.44;;;5.55;100.00
48027;BME280;50714;49.208;5.364;2024-01-30T06:21:00;100692.38;;;5.51;100.00
48027;BME280;50714;49.208;5.364;2024-01-30T06:31:01;100691.84;;;5.57;100.00
48027;BME280;50714;49.208;5.364;2024-01-30T06:41:01;100690.44;;;5.62;100.00
48027;BME280;50714;49.208;5.364;2024-01-30T06:51:02;100694.66;;;5.65;100.00
48027;BME280;50714;49.208;5.364;2024-01-30T07:01:02;100702.25;;;5.79;100.00
48027;BME280;50714;49.208;5.364;2024-01-30T07:11:02;100706.19;;;5.94;100.00
48027;BME280;50714;49.208;5.364;2024-01-30T07:21:03;100721.84;;;5.99;100.00
48027;BME280;50714;49.208;5.364;2024-01-30T07:31:04;100717.59;;;5.96;100.00
48027;BME280;50714;49.208;5.364;2024-01-30T07:41:05;100735.09;;;6.00;100.00
48027;BME280;50714;49.208;5.364;2024-01-30T07:51:05;100734.09;;;6.01;100.00
48027;BME280;50714;49.208;5.364;2024-01-30T08:01:05;100730.28;;;6.13;100.00
48027;BME280;50714;49.208;5.364;2024-01-30T08:11:06;100747.53;;;6.38;100.00
48027;BME280;50714;49.208;5.364;2024-01-30T08:21:07;100748.56;;;6.65;100.00
48027;BME280;50714;49.208;5.364;2024-01-30T08:31:10;100758.22;;;6.85;100.00
48027;BME280;50714;49.208;5.364;2024-01-30T08:41:11;100769.63;;;6.97;100.00
48027;BME280;50714;49.208;5.364;2024-01-30T08:51:11;100777.66;;;7.06;100.00
48027;BME280;50714;49.208;5.364;2024-01-30T09:01:11;100784.94;;;7.14;100.00
48027;BME280;50714;49.208;5.364;2024-01-30T09:11:13;100793.81;;;7.14;100.00
48027;BME280;50714;49.208;5.364;2024-01-30T09:21:13;100801.19;;;7.12;100.00
48027;BME280;50714;49.208;5.364;2024-01-30T09:31:14;100814.00;;;7.18;100.00
48027;BME280;50714;49.208;5.364;2024-01-30T09:41:15;100828.53;;;7.26;100.00
48027;BME280;50714;49.208;5.364;2024-01-30T09:51:16;100819.19;;;7.30;100.00
48027;BME280;50714;49.208;5.364;2024-01-30T10:01:18;100840.88;;;7.46;100.00
48027;BME280;50714;49.208;5.364;2024-01-30T10:11:19;100843.41;;;7.65;100.00
48027;BME280;50714;49.208;5.364;2024-01-30T10:21:20;100838.59;;;7.86;100.00
48027;BME280;50714;49.208;5.364;2024-01-30T10:31:20;100840.81;;;8.09;100.00
48027;BME280;50714;49.208;5.364;2024-01-30T10:41:26;100834.56;;;8.62;100.00
48027;BME280;50714;49.208;5.364;2024-01-30T10:51:27;100838.50;;;9.43;100.00
48027;BME280;50714;49.208;5.364;2024-01-30T11:01:28;100844.34;;;9.89;100.00
48027;BME280;50714;49.208;5.364;2024-01-30T11:11:29;100829.22;;;10.45;100.00
48027;BME280;50714;49.208;5.364;2024-01-30T11:21:29;100834.09;;;10.74;100.00
48027;BME280;50714;49.208;5.364;2024-01-30T11:31:30;100841.13;;;10.91;100.00
48027;BME280;50714;49.208;5.364;2024-01-30T11:41:31;100830.41;;;11.14;100.00
48027;BME280;50714;49.208;5.364;2024-01-30T11:51:32;100816.81;;;11.38;100.00
48027;BME280;50714;49.208;5.364;2024-01-30T12:01:32;100825.97;;;11.60;100.00
48027;BME280;50714;49.208;5.364;2024-01-30T12:11:33;100834.50;;;11.49;100.00
48027;BME280;50714;49.208;5.364;2024-01-30T12:21:43;100832.78;;;11.56;100.00
48027;BME280;50714;49.208;5.364;2024-01-30T12:31:43;100828.09;;;11.42;100.00
48027;BME280;50714;49.208;5.364;2024-01-30T12:41:44;100819.94;;;11.19;100.00
48027;BME280;50714;49.208;5.364;2024-01-30T12:51:44;100832.44;;;11.12;100.00
48027;BME280;50714;49.208;5.364;2024-01-30T13:01:45;100835.69;;;11.07;100.00
48027;BME280;50714;49.208;5.364;2024-01-30T13:11:45;100819.09;;;11.18;100.00
48027;BME280;50714;49.208;5.364;2024-01-30T13:21:46;100818.59;;;11.15;100.00
48027;BME280;50714;49.208;5.364;2024-01-30T13:31:47;100828.06;;;11.11;100.00
48027;BME280;50714;49.208;5.364;2024-01-30T13:41:48;100834.00;;;11.06;100.00
48027;BME280;50714;49.208;5.364;2024-01-30T13:51:49;100823.50;;;11.11;100.00
48027;BME280;50714;49.208;5.364;2024-01-30T14:01:49;100816.88;;;11.22;100.00
48027;BME280;50714;49.208;5.364;2024-01-30T14:11:49;100824.16;;;11.13;100.00
48027;BME280;50714;49.208;5.364;2024-01-30T14:21:49;100827.41;;;11.09;100.00
48027;BME280;50714;49.208;5.364;2024-01-30T14:31:50;100844.47;;;11.01;100.00
48027;BME280;50714;49.208;5.364;2024-01-30T14:41:50;100846.69;;;10.98;100.00
48027;BME280;50714;49.208;5.364;2024-01-30T14:51:50;100844.16;;;10.88;100.00
48027;BME280;50714;49.208;5.364;2024-01-30T15:01:51;100842.19;;;10.82;100.00
48027;BME280;50714;49.208;5.364;2024-01-30T15:11:51;100852.81;;;10.75;100.00
48027;BME280;50714;49.208;5.364;2024-01-30T15:21:52;100846.06;;;10.71;100.00
48027;BME280;50714;49.208;5.364;2024-01-30T15:31:52;100866.47;;;10.66;100.00
48027;BME280;50714;49.208;5.364;2024-01-30T15:41:52;100868.19;;;10.58;100.00
48027;BME280;50714;49.208;5.364;2024-01-30T15:51:53;100877.97;;;10.51;100.00
48027;BME280;50714;49.208;5.364;2024-01-30T16:01:53;100898.22;;;10.47;100.00
48027;BME280;50714;49.208;5.364;2024-01-30T16:11:53;100898.72;;;10.43;100.00
48027;BME280;50714;49.208;5.364;2024-01-30T16:21:54;100889.94;;;10.41;100.00
48027;BME280;50714;49.208;5.364;2024-01-30T16:31:55;100916.59;;;10.36;100.00
48027;BME280;50714;49.208;5.364;2024-01-30T16:41:55;100928.41;;;10.35;100.00
48027;BME280;50714;49.208;5.364;2024-01-30T16:51:56;100937.16;;;10.29;100.00
48027;BME280;50714;49.208;5.364;2024-01-30T17:01:56;100945.91;;;10.22;100.00
48027;BME280;50714;49.208;5.364;2024-01-30T17:11:57;100951.28;;;10.14;100.00
48027;BME280;50714;49.208;5.364;2024-01-30T17:21:57;100947.91;;;10.12;100.00
48027;BME280;50714;49.208;5.364;2024-01-30T17:31:57;100961.53;;;10.03;100.00
48027;BME280;50714;49.208;5.364;2024-01-30T17:41:57;100967.06;;;10.01;100.00
48027;BME280;50714;49.208;5.364;2024-01-30T17:51:58;100983.25;;;10.01;100.00
48027;BME280;50714;49.208;5.364;2024-01-30T18:01:58;100985.28;;;9.99;100.00
48027;BME280;50714;49.208;5.364;2024-01-30T18:11:59;100996.91;;;10.00;100.00
48027;BME280;50714;49.208;5.364;2024-01-30T18:21:59;101006.31;;;9.96;100.00
48027;BME280;50714;49.208;5.364;2024-01-30T18:31:59;101015.09;;;9.98;100.00
48027;BME280;50714;49.208;5.364;2024-01-30T18:42:00;101016.59;;;9.92;100.00
48027;BME280;50714;49.208;5.364;2024-01-30T18:52:00;101031.59;;;9.86;100.00
48027;BME280;50714;49.208;5.364;2024-01-30T19:02:01;101055.97;;;9.51;100.00
48027;BME280;50714;49.208;5.364;2024-01-30T19:12:01;101066.09;;;9.31;100.00
48027;BME280;50714;49.208;5.364;2024-01-30T19:22:02;101068.22;;;9.19;100.00
48027;BME280;50714;49.208;5.364;2024-01-30T19:32:02;101074.22;;;9.13;100.00
48027;BME280;50714;49.208;5.364;2024-01-30T19:42:03;101071.13;;;9.08;100.00
48027;BME280;50714;49.208;5.364;2024-01-30T19:52:03;101081.06;;;9.08;100.00
48027;BME280;50714;49.208;5.364;2024-01-30T20:02:05;101077.81;;;9.04;100.00
48027;BME280;50714;49.208;5.364;2024-01-30T20:12:06;101094.97;;;9.03;100.00
48027;BME280;50714;49.208;5.364;2024-01-30T20:22:06;101085.16;;;8.94;100.00
48027;BME280;50714;49.208;5.364;2024-01-30T20:32:07;101089.00;;;8.92;100.00
48027;BME280;50714;49.208;5.364;2024-01-30T20:42:07;101082.63;;;8.93;100.00
48027;BME280;50714;49.208;5.364;2024-01-30T20:52:07;101084.78;;;8.89;100.00
48027;BME280;50714;49.208;5.364;2024-01-30T21:02:08;101092.16;;;8.87;100.00
48027;BME280;50714;49.208;5.364;2024-01-30T21:12:08;101102.91;;;8.87;100.00
48027;BME280;50714;49.208;5.364;2024-01-30T21:22:08;101115.69;;;8.85;100.00
48027;BME280;50714;49.208;5.364;2024-01-30T21:32:09;101121.91;;;8.85;100.00
48027;BME280;50714;49.208;5.364;2024-01-30T21:42:10;101121.50;;;8.80;100.00
48027;BME280;50714;49.208;5.364;2024-01-30T21:52:10;101112.44;;;8.81;100.00
48027;BME280;50714;49.208;5.364;2024-01-30T22:02:10;101131.28;;;8.81;100.00
48027;BME280;50714;49.208;5.364;2024-01-30T22:12:11;101143.34;;;8.77;100.00
48027;BME280;50714;49.208;5.364;2024-01-30T22:22:11;101151.72;;;8.74;100.00
48027;BME280;50714;49.208;5.364;2024-01-30T22:32:11;101161.81;;;8.72;100.00
48027;BME280;50714;49.208;5.364;2024-01-30T22:42:11;101168.50;;;8.68;100.00
48027;BME280;50714;49.208;5.364;2024-01-30T22:52:12;101177.72;;;8.66;100.00
48027;BME280;50714;49.208;5.364;2024-01-30T23:02:12;101187.94;;;8.62;100.00
48027;BME280;50714;49.208;5.364;2024-01-30T23:12:13;101190.63;;;8.62;100.00
48027;BME280;50714;49.208;5.364;2024-01-30T23:22:13;101211.00;;;8.65;100.00
48027;BME280;50714;49.208;5.364;2024-01-30T23:32:13;101206.22;;;8.59;100.00
48027;BME280;50714;49.208;5.364;2024-01-30T23:42:13;101190.06;;;8.59;100.00
48027;BME280;50714;49.208;5.364;2024-01-30T23:52:18;101203.72;;;8.47;100.00
